Long Boat Key, Florida
Current Conditions -  °F | °C
As of 7:53 AM on Friday 31 Oct 2014 (Local Time) from KSRQ Reporting Station
Overcast Overcast  
Wind Chill: 70°   Ceiling: 10000
Heat Index: 70°   Visibility: 10mi
Dew Point: 65°   Wind: 8mph
Humidity: 84%   Direction: 340°NNW
Pressure: 29.86"   Gusts: NA
Location:  27.3837°N, 82.6347°W
Report Text: KSRQ 311153Z 34007KT 10SM SCT070 OVC100 21/18 A2986 RMK AO2 SLP112 60000 T02110183 10222 20211 53013
Loading
Personal Weather Stations






























Interactive Weather Map
Tropical Storm Tracking
New forecast layout! Learn more

10-Day Weather Forecast

Advertisements
Track Severe Weather on mobile